Woodland, CA

12:38 PM PDT on August 22, 2014 (GMT -0700)
Sacramento International | Change Station
CLOSE
Current Station
Airport
Location: Sacramento International,
Elevation: 26 ft
Nearby Weather Stations

Elev 26 ft 38.70 °N, 121.59 °W | Updated 45 minutes ago

Clear
Clear
76 °F
Feels Like 76 °F
N
17
Wind Variable Wind from South
Gusts 24 mph

Today
High -- | Low -- °F
--% Chance of Precip.
Yesterday
High -- | Low -- °F
Precip. -- in
6:27 AM 7:51 PM
Waning Crescent, 7% visible
Pressure 29.87 in
Visibility 10.0 miles
Clouds Clear
Dew Point 56 °F
Humidity 50%
Rainfall 0.00 in
Snow Depth Not available.
UV 9 out of 12
Pollen 7.30 out of 12
Ozone Good
PM2.5 Good
Flu Activity Not available.
METAR KSMF 221853Z 19015G21KT 10SM CLR 24/13 A2987 RMK AO2 SLP114 T02440133 $

More Conditions Fewer Conditions

Pressure 29.87 in
Visibility 10.0 miles
Clouds Clear
Dew Point 56 °F
Humidity 50%
Rainfall 0.00 in
Snow Depth Not available.
UV 9 out of 12
Pollen 7.30 out of 12
Ozone Good
PM2.5 Good
Flu Activity Not available.
METAR KSMF 221853Z 19015G21KT 10SM CLR 24/13 A2987 RMK AO2 SLP114 T02440133 $

More Conditions Fewer Conditions

10-Day Weather Forecast

Almanac

Astronomy

Aug. 22, 2014 Rise Set
Actual Time 6:27 AM PDT 7:51 PM PDT
Civil Twilight 5:59 AM PDT 8:19 PM PDT
Nautical Twilight 5:26 AM PDT 8:52 PM PDT
Astronomical Twilight 4:51 AM PDT 9:27 PM PDT
Moon 3:55 AM PDT 6:03 PM PDT
Length of Visible Light 14h 19m
Length of Day
13h 24m
Tomorrow will be 2m 18s shorter.
Waning Crescent, 7% of the Moon is Illuminated
Today
Waning Crescent
Aug 25
New
Sep 2
First Quarter
Sep 8
Full
Sep 15
Last Quarter

Today's Extremes

State Highs State Lows

Community

WunderPhotos

Upload Photos

1,746,226 photos uploaded!

Nearby

Air Quality

  Air Quality AQ Index Pollutant
Yesterday Good
OZONE
Yesterday Good
PM2.5
Current Good
PM2.5
Current Good
OZONE
Friday Good
OZONE
Saturday Good
OZONE
Sunday Good
OZONE
Monday Good
OZONE
Tuesday Good
OZONE
Wednesday Good
OZONE

Snow Depth

Station Depth Elevation
CSS Lab 0 in 6900 ft
Echo Peak 0 in 7800 ft
Tahoe City Cross 0 in 6750 ft
Monitor Pass 0 in 8350 ft
Leavitt Meadows 0 in 7200 ft

Earthquake Activity

City Distance Mag. Time & Date
Berkeley, California 61 miles 2.6 7:41 PM PDT
2014-08-16
Minimum magnitude displayed is 2.5.

Coastal Water Temperatures

Place Temperature
No Stations Reporting

Nearby Weather Stations